Main page
METAR-TAF:

METAR-TAF

Airports :

Ingolstadt Manching Airport

Ingolstadt, Germany

latitude: 48-43N, longitude: 011-32E, elevation: 367 m

Current weather observation

The report was made 56 minutes ago, at 06:20 UTC
Wind 6 kt from the West
Temperature 3°C
Humidity 65%
Pressure 1015 hPa
Visibility 10 km or more

METAR: ETSI 030620Z 28006KT 9999 03/M03 Q1015 BLU+BLU+

Time: 09:16 (07:16 UTC)

Forecast

The report was made 3 hours and 3 minutes ago, at 04:13 UTC
Forecast valid from 03 at 05 UTC to 03 at 14 UTC
Wind 10 kt from the West
Visibility 10 km or more
Scattered clouds at a height of 5000 ft

TAF: ETSI 030413Z 0305/0314 27010KT 9999 NSW SCT050

Weather observations and forecasts of more than 4000 airports (METAR and TAF reports).

The available stations are represented by yellow and red dots on the map.

Hover mouse over dot to see the name of the station.

Then click to see weather observations and forecasts.

To change the map : click on the green buttons with a black cross to zoom in, on the green button with a dash to zoom out, or on the green arrows for adjacent maps.


METAR-TAF: